Time;durP1;ratioP1;P1;durP2;ratioP2;P2;SDS_P1;SDS_P2;PMS_P1;PMS_P2;Temp;Humidity;BMP_temperature;BMP_pressure;BME280_temperature;BME280_humidity;BME280_pressure;Samples;Min_cycle;Max_cycle;Signal;HPM_P1;HPM_P2
2023/03/04 00:01:50;;;;;;;7.15;2.88;;;;;;;-144.57;100.00;62443.72;5092749;28;20094;-62
2023/03/04 00:04:16;;;;;;;5.70;2.85;;;;;;;-144.57;100.00;62443.72;5091464;28;20101;-60
2023/03/04 00:06:42;;;;;;;5.45;3.15;;;;;;;-144.57;100.00;62443.72;5091449;28;20067;-58
2023/03/04 00:09:08;;;;;;;7.43;3.58;;;;;;;-144.57;100.00;62443.72;5092709;28;20052;-60
2023/03/04 00:11:34;;;;;;;7.75;3.25;;;;;;;-144.57;100.00;62443.72;5092611;28;20081;-60
2023/03/04 00:13:59;;;;;;;8.60;3.53;;;;;;;-144.57;100.00;62443.72;5091315;28;20140;-61
2023/03/04 00:16:28;;;;;;;10.27;3.80;;;;;;;-144.57;100.00;62443.72;5091285;28;20036;-61
2023/03/04 00:18:55;;;;;;;8.60;4.05;;;;;;;-144.57;100.00;62443.72;5092328;28;20044;-61
2023/03/04 00:21:21;;;;;;;5.80;4.05;;;;;;;-144.57;100.00;62443.72;5073815;28;20036;-59
2023/03/04 00:23:46;;;;;;;8.77;3.90;;;;;;;-144.57;100.00;62443.72;5092318;28;20043;-61
2023/03/04 00:26:12;;;;;;;7.47;3.55;;;;;;;-144.57;100.00;62443.72;5091163;28;20047;-62
2023/03/04 00:28:39;;;;;;;4.32;3.40;;;;;;;-144.57;100.00;62443.72;5091073;28;20172;-59
2023/03/04 00:31:06;;;;;;;14.30;3.90;;;;;;;-144.57;100.00;62443.72;5092218;28;20152;-64
2023/03/04 00:33:31;;;;;;;8.32;3.60;;;;;;;-144.57;100.00;62443.72;5090764;28;20050;-60
2023/03/04 00:35:58;;;;;;;8.27;3.85;;;;;;;-144.57;100.00;62443.72;5074032;28;20497;-60
2023/03/04 00:38:23;;;;;;;8.65;3.72;;;;;;;-144.57;100.00;62443.72;5092038;28;20046;-61
2023/03/04 00:40:49;;;;;;;5.97;4.05;;;;;;;-144.57;100.00;62443.72;5090899;28;20050;-60
2023/03/04 00:43:15;;;;;;;6.47;3.60;;;;;;;-144.57;100.00;62443.72;5091974;28;20036;-60
2023/03/04 00:45:40;;;;;;;6.85;3.53;;;;;;;-144.57;100.00;62443.72;5090910;28;20169;-59
2023/03/04 00:48:06;;;;;;;6.20;3.65;;;;;;;-144.57;100.00;62443.72;5090739;28;20530;-61
2023/03/04 00:50:32;;;;;;;6.78;3.63;;;;;;;-144.57;100.00;62443.72;5092243;28;20044;-60
2023/03/04 00:52:58;;;;;;;7.60;3.95;;;;;;;-144.57;100.00;62443.72;5090507;28;20117;-60
2023/03/04 00:55:23;;;;;;;4.63;3.50;;;;;;;-144.57;100.00;62443.72;5090814;28;20051;-61
2023/03/04 00:57:49;;;;;;;5.28;3.60;;;;;;;-144.57;100.00;62443.72;5092026;28;20128;-60
2023/03/04 01:00:15;;;;;;;8.75;3.60;;;;;;;-144.57;100.00;62443.72;5090809;28;20153;-59
2023/03/04 01:02:40;;;;;;;5.53;3.35;;;;;;;-144.57;100.00;62443.72;5073462;28;20093;-61
2023/03/04 01:05:07;;;;;;;8.10;3.83;;;;;;;-144.57;100.00;62443.72;5090476;28;20047;-61
2023/03/04 01:07:33;;;;;;;5.57;3.80;;;;;;;-144.57;100.00;62443.72;5091638;28;20052;-61
2023/03/04 01:09:59;;;;;;;5.63;3.75;;;;;;;-144.57;100.00;62443.72;5073533;28;20059;-59
2023/03/04 01:12:25;;;;;;;7.32;3.80;;;;;;;-144.57;100.00;62443.72;5073474;28;20513;-61
2023/03/04 01:14:50;;;;;;;6.55;3.50;;;;;;;-144.57;100.00;62443.72;5073440;28;20499;-60
2023/03/04 01:17:16;;;;;;;6.20;3.80;;;;;;;-144.57;100.00;62443.72;5073557;28;20101;-62
2023/03/04 01:19:42;;;;;;;5.63;3.80;;;;;;;-144.57;100.00;62443.72;5090369;28;20117;-61
2023/03/04 01:22:09;;;;;;;8.10;3.88;;;;;;;-144.57;100.00;62443.72;5090244;28;20051;-63
2023/03/04 01:24:35;;;;;;;7.45;4.00;;;;;;;-144.57;100.00;62443.72;5090306;28;20148;-59
2023/03/04 01:27:05;;;;;;;6.45;3.63;;;;;;;-144.57;100.00;62443.72;5090613;28;20050;-60
2023/03/04 01:29:31;;;;;;;7.68;3.65;;;;;;;-144.57;100.00;62443.72;5090149;28;20409;-62
2023/03/04 01:31:56;;;;;;;8.52;3.95;;;;;;;-144.57;100.00;62443.72;5090074;28;20031;-61
2023/03/04 01:34:22;;;;;;;5.97;4.00;;;;;;;-144.57;100.00;62443.72;5090084;28;20078;-60
2023/03/04 01:36:48;;;;;;;7.68;4.00;;;;;;;-144.57;100.00;62443.72;5089236;28;20109;-62
2023/03/04 01:39:13;;;;;;;6.55;3.70;;;;;;;-144.57;100.00;62443.72;5090016;28;20573;-60
2023/03/04 01:41:39;;;;;;;7.15;3.80;;;;;;;-144.57;100.00;62443.72;5090036;28;20055;-61
2023/03/04 01:44:05;;;;;;;6.90;4.20;;;;;;;-144.57;100.00;62443.72;5090093;28;20444;-60
2023/03/04 01:46:31;;;;;;;6.90;4.60;;;;;;;-144.57;100.00;62443.72;5090035;28;20122;-61
2023/03/04 01:48:57;;;;;;;7.50;4.22;;;;;;;-144.57;100.00;62443.72;5090001;28;20490;-61
2023/03/04 01:51:23;;;;;;;8.45;4.40;;;;;;;-144.57;100.00;62443.72;5091530;28;20046;-60
2023/03/04 01:53:52;;;;;;;9.35;4.45;;;;;;;-144.57;100.00;62443.72;5093740;28;20060;-60
2023/03/04 01:56:28;;;;;;;7.53;4.22;;;;;;;-144.57;100.00;62443.72;5095335;28;20417;-60
2023/03/04 01:59:23;;;;;;;6.80;4.50;;;;;;;-144.57;100.00;62443.72;5060363;28;20497;-60
2023/03/04 02:01:58;;;;;;;7.85;4.90;;;;;;;-144.57;100.00;62443.72;5095122;28;20047;-62
2023/03/04 02:04:33;;;;;;;6.55;4.30;;;;;;;-144.57;100.00;62443.72;5093762;28;20048;-62
2023/03/04 02:07:00;;;;;;;7.70;4.55;;;;;;;-144.57;100.00;62443.72;5077144;28;20128;-59
2023/03/04 02:09:26;;;;;;;8.27;5.05;;;;;;;-144.57;100.00;62443.72;5076926;28;20139;-58
2023/03/04 02:11:53;;;;;;;8.05;4.68;;;;;;;-144.57;100.00;62443.72;5077001;28;20036;-60
2023/03/04 02:14:20;;;;;;;6.97;5.03;;;;;;;-144.57;100.00;62443.72;5093616;28;20050;-60
2023/03/04 02:16:47;;;;;;;10.90;4.65;;;;;;;-144.57;100.00;62443.72;5093561;28;20040;-62
2023/03/04 02:19:26;;;;;;;9.00;4.75;;;;;;;-144.57;100.00;62443.72;5094749;28;20481;-60
2023/03/04 02:21:52;;;;;;;12.82;5.05;;;;;;;-144.57;100.00;62443.72;5093736;28;20049;-60
2023/03/04 02:24:24;;;;;;;6.78;4.47;;;;;;;-144.57;100.00;62443.72;5093452;28;20072;-60
2023/03/04 02:26:49;;;;;;;8.23;4.90;;;;;;;-144.57;100.00;62443.72;5094717;28;20039;-60
2023/03/04 02:29:16;;;;;;;7.78;4.80;;;;;;;-144.57;100.00;62443.72;5094661;28;20246;-60
2023/03/04 02:31:47;;;;;;;8.85;5.25;;;;;;;-144.57;100.00;62443.72;5093246;28;20039;-59
2023/03/04 02:34:21;;;;;;;9.02;4.80;;;;;;;-144.57;100.00;62443.72;5093179;28;20052;-60
2023/03/04 02:36:48;;;;;;;9.98;5.00;;;;;;;-144.57;100.00;62443.72;5075652;28;20456;-60
2023/03/04 02:39:24;;;;;;;8.30;5.63;;;;;;;-144.57;100.00;62443.72;5093094;28;20504;-61
2023/03/04 02:41:52;;;;;;;8.38;4.68;;;;;;;-144.57;100.00;62443.72;5076490;28;20501;-61
2023/03/04 02:44:26;;;;;;;7.97;4.63;;;;;;;-144.57;100.00;62443.72;5093057;28;20052;-59
2023/03/04 02:46:53;;;;;;;6.68;4.45;;;;;;;-144.57;100.00;62443.72;5094315;28;20080;-61
2023/03/04 02:49:20;;;;;;;9.25;4.82;;;;;;;-144.57;100.00;62443.72;5092915;28;20139;-62
2023/03/04 02:51:49;;;;;;;7.68;5.35;;;;;;;-144.57;100.00;62443.72;5094400;28;20563;-60
2023/03/04 02:54:17;;;;;;;8.70;5.22;;;;;;;-144.57;100.00;62443.72;5093876;28;20052;-62
2023/03/04 02:56:58;;;;;;;7.53;4.95;;;;;;;-144.57;100.00;62443.72;5094171;28;20036;-61
2023/03/04 02:59:24;;;;;;;8.45;5.10;;;;;;;-144.57;100.00;62443.72;5092747;28;20052;-61
2023/03/04 03:01:50;;;;;;;8.02;4.90;;;;;;;-144.57;100.00;62443.72;5092266;28;20075;-61
2023/03/04 03:04:17;;;;;;;7.57;5.00;;;;;;;-144.57;100.00;62443.72;5058346;28;20510;-59
2023/03/04 03:06:43;;;;;;;10.45;5.45;;;;;;;-144.57;100.00;62443.72;5076084;28;20043;-61
2023/03/04 03:09:10;;;;;;;10.07;5.20;;;;;;;-144.57;100.00;62443.72;5075847;28;20412;-60
2023/03/04 03:11:36;;;;;;;9.80;4.85;;;;;;;-144.57;100.00;62443.72;5093698;28;20127;-60
2023/03/04 03:14:02;;;;;;;8.70;5.47;;;;;;;-144.57;100.00;62443.72;5092338;28;20055;-60
2023/03/04 03:16:28;;;;;;;7.90;4.82;;;;;;;-144.57;100.00;62443.72;5093584;28;20044;-61
2023/03/04 03:18:54;;;;;;;8.15;5.30;;;;;;;-144.57;100.00;62443.72;5075494;28;20058;-61
2023/03/04 03:21:20;;;;;;;7.47;5.15;;;;;;;-144.57;100.00;62443.72;5075900;28;20047;-61
2023/03/04 03:23:46;;;;;;;9.48;5.20;;;;;;;-144.57;100.00;62443.72;5093651;28;20044;-59
2023/03/04 03:26:11;;;;;;;7.93;5.20;;;;;;;-144.57;100.00;62443.72;5092667;28;20097;-61
2023/03/04 03:28:37;;;;;;;10.13;5.63;;;;;;;-144.57;100.00;62443.72;5092069;28;20044;-60
2023/03/04 03:31:03;;;;;;;10.40;5.50;;;;;;;-144.57;100.00;62443.72;5058847;28;20032;-61
2023/03/04 03:33:29;;;;;;;7.15;4.75;;;;;;;-144.57;100.00;62443.72;5093669;28;20043;-59
2023/03/04 03:35:55;;;;;;;7.07;4.47;;;;;;;-144.57;100.00;62443.72;5092298;28;20119;-61
2023/03/04 03:38:20;;;;;;;11.13;5.25;;;;;;;-144.57;100.00;62443.72;5093175;28;20044;-60
2023/03/04 03:40:46;;;;;;;11.05;5.47;;;;;;;-144.57;100.00;62443.72;5093647;28;20048;-60
2023/03/04 03:43:13;;;;;;;6.82;5.18;;;;;;;-144.57;100.00;62443.72;5093118;28;20039;-61
2023/03/04 03:45:38;;;;;;;11.05;5.45;;;;;;;-144.57;100.00;62443.72;5093458;28;20051;-61
2023/03/04 03:48:04;;;;;;;8.52;5.28;;;;;;;-144.57;100.00;62443.72;5093071;28;20043;-61
2023/03/04 03:50:30;;;;;;;9.05;5.13;;;;;;;-144.57;100.00;62443.72;5093449;28;20527;-58
2023/03/04 03:52:55;;;;;;;13.50;6.22;;;;;;;-144.57;100.00;62443.72;5092791;28;20052;-60
2023/03/04 03:55:21;;;;;;;10.40;5.32;;;;;;;-144.57;100.00;62443.72;5093373;28;20036;-60
2023/03/04 03:57:47;;;;;;;9.32;4.82;;;;;;;-144.57;100.00;62443.72;5092824;28;20036;-60
2023/03/04 04:00:13;;;;;;;9.32;4.45;;;;;;;-144.57;100.00;62443.72;5093200;28;20051;-58
2023/03/04 04:02:39;;;;;;;9.77;5.30;;;;;;;-144.57;100.00;62443.72;5091348;28;20055;-61
2023/03/04 04:05:06;;;;;;;9.35;4.88;;;;;;;-144.57;100.00;62443.72;5092248;28;20044;-59
2023/03/04 04:07:32;;;;;;;9.93;5.32;;;;;;;-144.57;100.00;62443.72;5091591;28;20036;-63
2023/03/04 04:09:58;;;;;;;9.48;4.95;;;;;;;-144.57;100.00;62443.72;5074219;28;20102;-62
2023/03/04 04:12:23;;;;;;;11.27;5.38;;;;;;;-144.57;100.00;62443.72;5092222;28;20072;-64
2023/03/04 04:14:49;;;;;;;13.43;6.25;;;;;;;-144.57;100.00;62443.72;5090648;28;20054;-60
2023/03/04 04:17:14;;;;;;;12.95;6.00;;;;;;;-144.57;100.00;62443.72;5091974;28;20032;-64
2023/03/04 04:19:40;;;;;;;11.88;5.55;;;;;;;-144.57;100.00;62443.72;5092574;28;20113;-62
2023/03/04 04:22:08;;;;;;;9.90;5.60;;;;;;;-144.57;100.00;62443.72;5091108;28;20044;-63
2023/03/04 04:24:34;;;;;;;10.35;5.60;;;;;;;-144.57;100.00;62443.72;5090850;28;20048;-63
2023/03/04 04:27:01;;;;;;;10.32;5.85;;;;;;;-144.57;100.00;62443.72;5074186;28;20092;-61
2023/03/04 04:29:26;;;;;;;11.20;5.15;;;;;;;-144.57;100.00;62443.72;5092351;28;20090;-63
2023/03/04 04:31:52;;;;;;;9.63;4.90;;;;;;;-144.57;100.00;62443.72;5092455;28;20067;-64
2023/03/04 04:34:17;;;;;;;11.40;5.43;;;;;;;-144.57;100.00;62443.72;5091011;28;20052;-61
2023/03/04 04:36:43;;;;;;;10.93;4.40;;;;;;;-144.57;100.00;62443.72;5092230;28;20040;-60
2023/03/04 04:39:09;;;;;;;10.52;6.35;;;;;;;-144.57;100.00;62443.72;5092165;28;20169;-60
2023/03/04 04:41:40;;;;;;;11.23;5.40;;;;;;;-144.57;100.00;62443.72;5092016;28;20142;-64
2023/03/04 04:44:07;;;;;;;9.20;5.25;;;;;;;-144.57;100.00;62443.72;5092140;28;20051;-60
2023/03/04 04:46:32;;;;;;;7.65;4.47;;;;;;;-144.57;100.00;62443.72;5090789;28;20092;-58
2023/03/04 04:48:58;;;;;;;9.40;5.40;;;;;;;-144.57;100.00;62443.72;5090587;28;20040;-60
2023/03/04 04:51:24;;;;;;;11.15;5.63;;;;;;;-144.57;100.00;62443.72;5090735;28;20043;-62
2023/03/04 04:53:51;;;;;;;9.93;5.45;;;;;;;-144.57;100.00;62443.72;5090209;28;20066;-61
2023/03/04 04:56:19;;;;;;;9.52;5.10;;;;;;;-144.57;100.00;62443.72;5073931;28;20035;-61
2023/03/04 04:58:46;;;;;;;10.00;5.60;;;;;;;-144.57;100.00;62443.72;5090512;28;20039;-63
2023/03/04 05:01:12;;;;;;;7.82;4.90;;;;;;;-144.57;100.00;62443.72;5092045;28;20040;-60
2023/03/04 05:03:38;;;;;;;10.23;5.22;;;;;;;-144.57;100.00;62443.72;5090383;28;20107;-60
2023/03/04 05:06:05;;;;;;;7.72;5.05;;;;;;;-144.57;100.00;62443.72;5091886;28;20522;-63
2023/03/04 05:08:31;;;;;;;9.45;5.35;;;;;;;-144.57;100.00;62443.72;5091396;28;20044;-62
2023/03/04 05:10:57;;;;;;;8.38;4.88;;;;;;;-144.57;100.00;62443.72;5090390;28;20066;-62
2023/03/04 05:13:23;;;;;;;9.10;5.43;;;;;;;-144.57;100.00;62443.72;5091607;28;20043;-62
2023/03/04 05:15:53;;;;;;;9.27;5.78;;;;;;;-144.57;100.00;62443.72;5090510;28;20127;-62
2023/03/04 05:18:20;;;;;;;10.85;5.53;;;;;;;-144.57;100.00;62443.72;5091768;28;20110;-63
2023/03/04 05:20:53;;;;;;;10.43;5.50;;;;;;;-144.57;100.00;62443.72;5090391;28;20420;-60
2023/03/04 05:23:19;;;;;;;9.48;4.82;;;;;;;-144.57;100.00;62443.72;5091384;28;20051;-62
2023/03/04 05:25:45;;;;;;;10.60;5.40;;;;;;;-144.57;100.00;62443.72;5090531;28;20036;-62
2023/03/04 05:28:11;;;;;;;12.88;5.32;;;;;;;-144.57;100.00;62443.72;5091369;28;20043;-60
2023/03/04 05:30:38;;;;;;;8.98;5.05;;;;;;;-144.57;100.00;62443.72;5091187;28;20552;-61
2023/03/04 05:33:04;;;;;;;9.73;5.63;;;;;;;-144.57;100.00;62443.72;5089932;28;20036;-63
2023/03/04 05:35:30;;;;;;;10.88;5.22;;;;;;;-144.57;100.00;62443.72;5090214;28;20051;-59
2023/03/04 05:37:56;;;;;;;8.57;4.75;;;;;;;-144.57;100.00;62443.72;5091133;28;20063;-61
2023/03/04 05:40:24;;;;;;;7.55;4.32;;;;;;;-144.57;100.00;62443.72;5091705;28;20048;-61
2023/03/04 05:42:50;;;;;;;9.68;4.90;;;;;;;-144.57;100.00;62443.72;5091163;28;20040;-63
2023/03/04 05:45:16;;;;;;;6.85;4.63;;;;;;;-144.57;100.00;62443.72;5091579;28;20036;-63
2023/03/04 05:47:41;;;;;;;8.13;4.85;;;;;;;-144.57;100.00;62443.72;5090189;28;20040;-62
2023/03/04 05:50:08;;;;;;;14.95;8.45;;;;;;;-144.57;100.00;62443.72;5090075;28;20534;-64
2023/03/04 05:52:33;;;;;;;8.07;5.18;;;;;;;-144.57;100.00;62443.72;5091478;28;20044;-63
2023/03/04 05:54:59;;;;;;;7.53;4.53;;;;;;;-144.57;100.00;62443.72;5091425;28;20067;-62
2023/03/04 05:57:24;;;;;;;9.32;4.47;;;;;;;-144.57;100.00;62443.72;5091108;28;20036;-64
2023/03/04 05:59:50;;;;;;;9.30;4.45;;;;;;;-144.57;100.00;62443.72;5091258;28;20448;-63
2023/03/04 06:02:16;;;;;;;8.38;4.75;;;;;;;-144.57;100.00;62443.72;5073099;28;20044;-64
2023/03/04 06:04:41;;;;;;;7.72;4.63;;;;;;;-144.57;100.00;62443.72;5089910;28;20570;-63
2023/03/04 06:07:07;;;;;;;9.43;5.18;;;;;;;-144.57;100.00;62443.72;5090092;28;20086;-62
2023/03/04 06:09:33;;;;;;;9.85;4.78;;;;;;;-144.57;100.00;62443.72;5073095;28;20089;-63
2023/03/04 06:11:58;;;;;;;9.02;4.38;;;;;;;-144.57;100.00;62443.72;5091098;28;20087;-62
2023/03/04 06:14:24;;;;;;;8.52;4.40;;;;;;;-144.57;100.00;62443.72;5091305;28;20075;-61
2023/03/04 06:16:49;;;;;;;9.02;4.45;;;;;;;-144.57;100.00;62443.72;5091287;28;20080;-62
2023/03/04 06:19:15;;;;;;;7.03;4.10;;;;;;;-144.57;100.00;62443.72;5089935;28;20127;-62
2023/03/04 06:21:41;;;;;;;7.10;4.35;;;;;;;-144.57;100.00;62443.72;5089594;28;20416;-64
2023/03/04 06:24:06;;;;;;;6.22;4.30;;;;;;;-144.57;100.00;62443.72;5090742;28;20044;-63
2023/03/04 06:26:32;;;;;;;7.85;5.00;;;;;;;-144.57;100.00;62443.72;5091130;28;20044;-62
2023/03/04 06:28:58;;;;;;;7.43;4.00;;;;;;;-144.57;100.00;62443.72;5090882;28;20079;-62
2023/03/04 06:31:23;;;;;;;7.75;4.35;;;;;;;-144.57;100.00;62443.72;5089533;28;20075;-63
2023/03/04 06:33:49;;;;;;;6.35;4.43;;;;;;;-144.57;100.00;62443.72;5090589;28;20068;-60
2023/03/04 06:36:34;;;;;;;9.73;4.63;;;;;;;-144.57;100.00;62443.72;5090817;28;20477;-62
2023/03/04 06:39:04;;;;;;;7.63;4.47;;;;;;;-144.57;100.00;62443.72;5094296;28;20071;-65
2023/03/04 06:41:30;;;;;;;9.63;5.55;;;;;;;-144.57;100.00;62443.72;5093377;28;20504;-61
2023/03/04 06:43:56;;;;;;;9.60;5.55;;;;;;;-144.57;100.00;62443.72;5094190;28;20056;-62
2023/03/04 06:46:22;;;;;;;8.15;5.50;;;;;;;-144.57;100.00;62443.72;5093879;28;20078;-60
2023/03/04 06:48:47;;;;;;;7.38;4.85;;;;;;;-144.57;100.00;62443.72;5094155;28;20088;-61
2023/03/04 06:51:14;;;;;;;10.52;4.68;;;;;;;-144.57;100.00;62443.72;5094209;28;20074;-62
2023/03/04 06:53:40;;;;;;;8.02;4.97;;;;;;;-144.57;100.00;62443.72;5093697;28;20067;-62
2023/03/04 06:56:07;;;;;;;12.57;4.78;;;;;;;-144.57;100.00;62443.72;5094040;28;20040;-63
2023/03/04 06:58:33;;;;;;;7.95;4.68;;;;;;;-144.57;100.00;62443.72;5093673;28;20047;-62
2023/03/04 07:01:16;;;;;;;12.93;4.93;;;;;;;-144.57;100.00;62443.72;5093900;28;20043;-63
2023/03/04 07:03:43;;;;;;;9.57;5.32;;;;;;;-144.57;100.00;62443.72;5093328;28;20040;-61
2023/03/04 07:06:14;;;;;;;13.90;5.32;;;;;;;-144.57;100.00;62443.72;5092048;28;20040;-61
2023/03/04 07:08:40;;;;;;;10.30;5.43;;;;;;;-144.57;100.00;62443.72;5056555;28;20151;-60
2023/03/04 07:11:06;;;;;;;9.60;5.60;;;;;;;-144.57;100.00;62443.72;5073446;28;20043;-62
2023/03/04 07:13:34;;;;;;;10.65;4.97;;;;;;;-144.57;100.00;62443.72;5090169;28;20036;-61
2023/03/04 07:16:00;;;;;;;13.48;4.80;;;;;;;-144.57;100.00;62443.72;5091210;28;20043;-61
2023/03/04 07:18:26;;;;;;;9.05;5.00;;;;;;;-144.57;100.00;62443.72;5091982;28;20524;-61
2023/03/04 07:20:52;;;;;;;7.65;5.78;;;;;;;-144.57;100.00;62443.72;5093981;28;20093;-61
2023/03/04 07:23:20;;;;;;;9.63;5.50;;;;;;;-144.57;100.00;62443.72;5090552;28;20044;-60
2023/03/04 07:25:48;;;;;;;9.05;5.43;;;;;;;-144.57;100.00;62443.72;5090012;28;20047;-61
2023/03/04 07:28:13;;;;;;;9.63;5.43;;;;;;;-144.57;100.00;62443.72;5089867;28;20036;-62
2023/03/04 07:30:39;;;;;;;10.18;6.43;;;;;;;-144.57;100.00;62443.72;5090046;28;20047;-62
2023/03/04 07:33:04;;;;;;;8.75;5.95;;;;;;;-144.57;100.00;62443.72;5056242;28;20050;-60
2023/03/04 07:35:30;;;;;;;8.98;4.97;;;;;;;-144.57;100.00;62443.72;5091758;28;20043;-60
2023/03/04 07:37:56;;;;;;;6.47;4.53;;;;;;;-144.57;100.00;62443.72;5091439;28;20050;-61
2023/03/04 07:40:22;;;;;;;6.97;4.82;;;;;;;-144.57;100.00;62443.72;5093363;28;20048;-61
2023/03/04 07:42:51;;;;;;;8.93;5.10;;;;;;;-144.57;100.00;62443.72;5092958;28;20108;-62
2023/03/04 07:45:17;;;;;;;8.50;5.55;;;;;;;-144.57;100.00;62443.72;5093006;28;20055;-62
2023/03/04 07:47:42;;;;;;;8.23;5.40;;;;;;;-144.57;100.00;62443.72;5092168;28;20032;-63
2023/03/04 07:50:10;;;;;;;8.13;5.80;;;;;;;-144.57;100.00;62443.72;5091120;28;20551;-62
2023/03/04 07:52:44;;;;;;;5.95;4.93;;;;;;;-144.57;100.00;62443.72;5092764;28;20042;-64
2023/03/04 07:55:12;;;;;;;8.30;5.78;;;;;;;-144.57;100.00;62443.72;5093370;28;20082;-62
2023/03/04 07:57:39;;;;;;;7.03;5.20;;;;;;;-144.57;100.00;62443.72;5092920;28;20040;-60
2023/03/04 08:00:05;;;;;;;7.72;5.38;;;;;;;-144.57;100.00;62443.72;5074853;28;20109;-61
2023/03/04 08:02:38;;;;;;;8.75;5.75;;;;;;;-144.57;100.00;62443.72;5092557;28;20047;-60
2023/03/04 08:05:04;;;;;;;9.30;5.55;;;;;;;-144.57;100.00;62443.72;5074572;28;20047;-62
2023/03/04 08:07:30;;;;;;;8.98;4.85;;;;;;;-144.57;100.00;62443.72;5092536;28;20073;-61
2023/03/04 08:09:55;;;;;;;8.75;5.20;;;;;;;-144.57;100.00;62443.72;5091326;28;20052;-60
2023/03/04 08:12:23;;;;;;;6.80;5.22;;;;;;;-144.57;100.00;62443.72;5091477;28;20044;-63
2023/03/04 08:14:49;;;;;;;6.65;5.00;;;;;;;-144.57;100.00;62443.72;5092410;28;20044;-60
2023/03/04 08:17:15;;;;;;;8.73;4.95;;;;;;;-144.57;100.00;62443.72;5092432;28;20165;-63
2023/03/04 08:19:41;;;;;;;10.25;6.13;;;;;;;-144.57;100.00;62443.72;5092538;28;20142;-60
2023/03/04 08:22:07;;;;;;;8.50;5.18;;;;;;;-144.57;100.00;62443.72;5092375;28;20044;-61
2023/03/04 08:24:33;;;;;;;10.77;5.47;;;;;;;-144.57;100.00;62443.72;5074071;28;20066;-62
2023/03/04 08:26:59;;;;;;;7.95;5.32;;;;;;;-144.57;100.00;62443.72;5090800;28;20543;-60
2023/03/04 08:29:25;;;;;;;10.35;5.63;;;;;;;-144.57;100.00;62443.72;5092237;28;20126;-61
2023/03/04 08:31:53;;;;;;;8.25;5.57;;;;;;;-144.57;100.00;62443.72;5092372;28;20067;-63
2023/03/04 08:34:20;;;;;;;8.07;4.95;;;;;;;-144.57;100.00;62443.72;5090890;28;20079;-63
2023/03/04 08:36:48;;;;;;;8.95;5.45;;;;;;;-144.57;100.00;62443.72;5092126;28;20093;-67
2023/03/04 08:39:17;;;;;;;10.93;5.40;;;;;;;-144.57;100.00;62443.72;5056898;28;20044;-62
2023/03/04 08:41:42;;;;;;;7.85;5.90;;;;;;;-144.57;100.00;62443.72;5092149;28;20416;-62
2023/03/04 08:44:11;;;;;;;9.02;5.80;;;;;;;-144.57;100.00;62443.72;5090711;28;20048;-62
2023/03/04 08:46:38;;;;;;;14.57;5.80;;;;;;;-144.57;100.00;62443.72;5092000;28;20085;-62
2023/03/04 08:49:04;;;;;;;10.35;5.20;;;;;;;-144.57;100.00;62443.72;5092026;28;20106;-61
2023/03/04 08:51:30;;;;;;;10.55;5.10;;;;;;;-144.57;100.00;62443.72;5091867;28;20043;-61
2023/03/04 08:53:56;;;;;;;8.63;4.82;;;;;;;-144.57;100.00;62443.72;5091189;28;20056;-62
2023/03/04 08:56:22;;;;;;;6.53;4.15;;;;;;;-144.57;100.00;62443.72;5091839;28;20055;-64
2023/03/04 08:58:47;;;;;;;5.97;4.15;;;;;;;-144.57;100.00;62443.72;5090418;28;20040;-61
2023/03/04 09:01:14;;;;;;;6.20;4.32;;;;;;;-144.57;100.00;62443.72;5091684;28;20044;-61
2023/03/04 09:03:40;;;;;;;5.82;4.13;;;;;;;-144.57;100.00;62443.72;5090140;28;20513;-62
2023/03/04 09:06:08;;;;;;;7.60;4.70;;;;;;;-144.57;100.00;62443.72;5091746;28;20128;-61
2023/03/04 09:08:34;;;;;;;6.90;4.25;;;;;;;-144.57;100.00;62443.72;5091556;28;20040;-61
2023/03/04 09:11:00;;;;;;;5.68;3.40;;;;;;;-144.57;100.00;62443.72;5090018;28;20036;-63
2023/03/04 09:13:28;;;;;;;6.35;3.25;;;;;;;-144.57;100.00;62443.72;5091449;28;20096;-61
2023/03/04 09:15:54;;;;;;;5.05;3.65;;;;;;;-144.57;100.00;62443.72;5090063;28;20048;-62
2023/03/04 09:18:21;;;;;;;5.30;3.95;;;;;;;-144.57;100.00;62443.72;5091376;28;20508;-61
2023/03/04 09:20:47;;;;;;;5.22;3.95;;;;;;;-144.57;100.00;62443.72;5091857;28;20047;-61
2023/03/04 09:23:14;;;;;;;6.35;4.18;;;;;;;-144.57;100.00;62443.72;5091609;28;20100;-62
2023/03/04 09:25:41;;;;;;;5.85;4.13;;;;;;;-144.57;100.00;62443.72;5091899;28;20036;-61
2023/03/04 09:28:06;;;;;;;6.45;4.50;;;;;;;-144.57;100.00;62443.72;5091269;28;20047;-61
2023/03/04 09:30:33;;;;;;;6.57;4.05;;;;;;;-144.57;100.00;62443.72;5090347;28;20032;-62
2023/03/04 09:32:59;;;;;;;7.80;4.60;;;;;;;-144.57;100.00;62443.72;5089897;28;20501;-62
2023/03/04 09:35:25;;;;;;;7.80;4.28;;;;;;;-144.57;100.00;62443.72;5091562;28;20047;-62
2023/03/04 09:37:51;;;;;;;7.43;4.10;;;;;;;-144.57;100.00;62443.72;5090172;28;20051;-61
2023/03/04 09:40:22;;;;;;;6.10;4.00;;;;;;;-144.57;100.00;62443.72;5091641;28;20047;-62
2023/03/04 09:42:54;;;;;;;4.85;3.80;;;;;;;-144.57;100.00;62443.72;5091247;28;20051;-61
2023/03/04 09:45:23;;;;;;;7.50;4.45;;;;;;;-144.57;100.00;62443.72;5091578;28;20051;-62
2023/03/04 09:47:51;;;;;;;8.90;4.65;;;;;;;-144.57;100.00;62443.72;5091470;28;20070;-62
2023/03/04 09:50:18;;;;;;;5.93;4.18;;;;;;;-144.57;100.00;62443.72;5089827;28;20047;-62
2023/03/04 09:52:56;;;;;;;6.80;4.57;;;;;;;-144.57;100.00;62443.72;5090910;28;20070;-61
2023/03/04 09:55:45;;;;;;;7.93;5.22;;;;;;;-144.57;100.00;62443.72;5091433;28;20055;-61
2023/03/04 09:58:37;;;;;;;8.27;5.05;;;;;;;-144.57;100.00;62443.72;5073093;28;20072;-62
2023/03/04 10:01:11;;;;;;;11.93;5.18;;;;;;;-144.57;100.00;62443.72;5089937;28;20127;-61
2023/03/04 10:03:56;;;;;;;6.63;4.43;;;;;;;-144.57;100.00;62443.72;5072864;28;20123;-62
2023/03/04 10:06:22;;;;;;;5.80;3.75;;;;;;;-144.57;100.00;62443.72;5091111;28;20048;-61
2023/03/04 10:08:52;;;;;;;6.70;4.03;;;;;;;-144.57;100.00;62443.72;5091041;28;20082;-61
2023/03/04 10:11:27;;;;;;;6.70;4.22;;;;;;;-144.57;100.00;62443.72;5089918;28;20113;-61
2023/03/04 10:13:59;;;;;;;6.63;3.55;;;;;;;-144.57;100.00;62443.72;5093938;28;20036;-63
2023/03/04 10:16:30;;;;;;;4.22;3.45;;;;;;;-144.57;100.00;62443.72;5076730;28;20120;-62
2023/03/04 10:19:30;;;;;;;5.82;3.70;;;;;;;-144.57;100.00;62443.72;5093508;28;20051;-61
2023/03/04 10:21:56;;;;;;;5.47;3.60;;;;;;;-144.57;100.00;62443.72;5077184;28;20056;-63
2023/03/04 10:24:27;;;;;;;5.18;3.45;;;;;;;-144.57;100.00;62443.72;5093425;28;20048;-62
2023/03/04 10:26:56;;;;;;;7.07;3.53;;;;;;;-144.57;100.00;62443.72;5093111;28;20040;-62
2023/03/04 10:29:23;;;;;;;5.05;3.90;;;;;;;-144.57;100.00;62443.72;5093325;28;20104;-62
2023/03/04 10:31:50;;;;;;;4.47;3.58;;;;;;;-144.57;100.00;62443.72;5059619;28;20050;-63
2023/03/04 10:34:16;;;;;;;3.92;3.50;;;;;;;-144.57;100.00;62443.72;5093228;28;20067;-61
2023/03/04 10:36:45;;;;;;;5.07;3.60;;;;;;;-144.57;100.00;62443.72;5094383;28;20047;-62
2023/03/04 10:39:18;;;;;;;8.18;4.10;;;;;;;-144.57;100.00;62443.72;5094349;28;20103;-63
2023/03/04 10:41:54;;;;;;;6.32;4.50;;;;;;;-144.57;100.00;62443.72;5076266;28;20105;-62
2023/03/04 10:44:20;;;;;;;6.75;4.15;;;;;;;-144.57;100.00;62443.72;5092970;28;20047;-61
2023/03/04 10:46:47;;;;;;;9.00;4.60;;;;;;;-144.57;100.00;62443.72;5092990;28;20040;-62
2023/03/04 10:49:16;;;;;;;7.43;4.38;;;;;;;-144.57;100.00;62443.72;5094094;28;20533;-62
2023/03/04 10:52:19;;;;;;;8.02;3.78;;;;;;;-144.57;100.00;62443.72;5094083;28;20054;-62
2023/03/04 10:54:57;;;;;;;5.75;4.20;;;;;;;-144.57;100.00;62443.72;5093973;28;20071;-61
2023/03/04 10:57:34;;;;;;;6.53;4.25;;;;;;;-144.57;100.00;62443.72;5094495;28;20085;-62
2023/03/04 11:00:21;;;;;;;4.03;3.50;;;;;;;-144.57;100.00;62443.72;5092757;28;20093;-61
2023/03/04 11:02:48;;;;;;;4.97;3.03;;;;;;;-144.57;100.00;62443.72;5093935;28;20505;-62
2023/03/04 11:05:16;;;;;;;6.80;3.65;;;;;;;-144.57;100.00;62443.72;5093929;28;20056;-61
2023/03/04 11:08:03;;;;;;;5.93;3.78;;;;;;;-144.57;100.00;62443.72;5092743;28;20040;-63
2023/03/04 11:10:34;;;;;;;5.07;3.10;;;;;;;-144.57;100.00;62443.72;5092261;28;20052;-62